createdAt,value
2022-09-02T00:00:08.537Z,95773.31
2022-09-02T00:01:17.111Z,95771.31
2022-09-02T00:02:31.483Z,95772.50
2022-09-02T00:03:35.280Z,95773.75
2022-09-02T00:04:38.961Z,95764.72
2022-09-02T00:05:41.070Z,95771.44
2022-09-02T00:06:55.060Z,95773.13
2022-09-02T00:07:57.012Z,95774.38
2022-09-02T00:09:01.073Z,95764.53
2022-09-02T00:10:03.187Z,95770.06
2022-09-02T00:11:08.397Z,95771.00
2022-09-02T00:12:12.935Z,95763.97
2022-09-02T00:13:18.361Z,95763.97
2022-09-02T00:14:24.743Z,95760.88
2022-09-02T00:15:27.133Z,95762.84
2022-09-02T00:16:31.910Z,95760.56
2022-09-02T00:17:35.311Z,95759.81
2022-09-02T00:18:38.219Z,95753.19
2022-09-02T00:19:40.176Z,95762.72
2022-09-02T00:20:44.751Z,95761.97
2022-09-02T00:21:47.161Z,95761.97
2022-09-02T00:22:50.286Z,95761.97
2022-09-02T00:23:52.622Z,95756.88
2022-09-02T00:24:55.449Z,95747.84
2022-09-02T00:25:58.301Z,95758.88
2022-09-02T00:27:01.366Z,95758.13
2022-09-02T00:28:03.573Z,95755.81
2022-09-02T00:29:09.552Z,95759.81
2022-09-02T00:30:13.195Z,95756.25
2022-09-02T00:31:16.999Z,95751.97
2022-09-02T00:32:19.317Z,95750.91
2022-09-02T00:33:23.891Z,95754.88
2022-09-02T00:34:26.404Z,95756.88
2022-09-02T00:35:29.753Z,95749.06
2022-09-02T00:36:32.956Z,95747.53
2022-09-02T00:37:36.133Z,95749.53
2022-09-02T00:38:39.749Z,95751.06
2022-09-02T00:39:42.719Z,95745.22
2022-09-02T00:40:47.372Z,95747.97
2022-09-02T00:41:50.700Z,95742.47
2022-09-02T00:42:53.099Z,95742.16
2022-09-02T00:43:58.868Z,95747.69
2022-09-02T00:45:02.487Z,95744.63
2022-09-02T00:46:06.196Z,95743.84
2022-09-02T00:47:08.408Z,95742.31
2022-09-02T00:48:11.758Z,95747.09
2022-09-02T00:49:24.206Z,95744.31
2022-09-02T00:50:31.277Z,95747.09
2022-09-02T00:51:39.423Z,95747.09
2022-09-02T00:52:45.488Z,95739.25
2022-09-02T00:53:49.377Z,95737.72
2022-09-02T00:54:56.894Z,95737.72
2022-09-02T00:56:01.405Z,95732.97
2022-09-02T00:57:09.265Z,95736.19
2022-09-02T00:58:16.735Z,95729.91
2022-09-02T00:59:25.207Z,95735.41
2022-09-02T01:00:31.287Z,95732.34
2022-09-02T01:01:38.005Z,95730.84
2022-09-02T01:02:42.408Z,95736.34
2022-09-02T01:03:45.552Z,95734.03
2022-09-02T01:04:48.803Z,95738.78
2022-09-02T01:05:53.539Z,95731.72
2022-09-02T01:06:56.902Z,95734.97
2022-09-02T01:08:01.239Z,95734.19
2022-09-02T01:09:09.352Z,95743.69
2022-09-02T01:10:15.512Z,95735.41
2022-09-02T01:11:19.973Z,95736.63
2022-09-02T01:12:24.218Z,95730.34
2022-09-02T01:13:32.138Z,95735.09
2022-09-02T01:14:35.424Z,95729.59
2022-09-02T01:15:40.958Z,95735.56
2022-09-02T01:16:46.820Z,95731.28
2022-09-02T01:17:51.092Z,95736.03
2022-09-02T01:18:57.729Z,95742.31
2022-09-02T01:20:07.849Z,95733.72
2022-09-02T01:21:10.992Z,95740.00
2022-09-02T01:22:19.914Z,95741.25
2022-09-02T01:23:23.317Z,95736.94
2022-09-02T01:24:30.962Z,95740.94
2022-09-02T01:25:35.624Z,95736.63
2022-09-02T01:26:37.541Z,95733.84
2022-09-02T01:27:40.731Z,95729.56
2022-09-02T01:28:43.204Z,95730.81
2022-09-02T01:29:46.697Z,95730.03
2022-09-02T01:30:51.271Z,95730.50
2022-09-02T01:31:54.440Z,95726.19
2022-09-02T01:32:56.477Z,95729.72
2022-09-02T01:33:59.649Z,95728.97
2022-09-02T01:35:01.813Z,95723.44
2022-09-02T01:36:05.398Z,95726.19
2022-09-02T01:37:07.744Z,95727.75
2022-09-02T01:38:12.730Z,95723.44
2022-09-02T01:39:14.795Z,95724.69
2022-09-02T01:40:19.130Z,95723.91
2022-09-02T01:41:21.063Z,95723.91
2022-09-02T01:42:24.071Z,95722.38
2022-09-02T01:43:28.155Z,95727.13
2022-09-02T01:44:31.462Z,95720.06
2022-09-02T01:45:36.560Z,95720.84
2022-09-02T01:46:39.695Z,95713.31
2022-09-02T01:47:42.009Z,95721.59
2022-09-02T01:48:46.653Z,95720.06
2022-09-02T01:49:50.102Z,95717.78
2022-09-02T01:50:56.151Z,95720.97
2022-09-02T01:51:58.730Z,95723.75
2022-09-02T01:53:03.872Z,95717.00
2022-09-02T01:54:09.127Z,95721.75
2022-09-02T01:55:12.366Z,95715.47
2022-09-02T01:56:14.995Z,95720.97
2022-09-02T01:57:18.079Z,95715.47
2022-09-02T01:58:20.513Z,95720.97
2022-09-02T01:59:23.489Z,95724.19
2022-09-02T02:00:25.953Z,95713.16
2022-09-02T02:01:29.069Z,95712.88
2022-09-02T02:02:31.963Z,95717.59
2022-09-02T02:03:39.043Z,95723.13
2022-09-02T02:04:41.031Z,95720.03
2022-09-02T02:05:44.905Z,95720.53
2022-09-02T02:06:52.319Z,95715.75
2022-09-02T02:07:56.411Z,95719.44
2022-09-02T02:08:58.594Z,95717.44
2022-09-02T02:10:05.968Z,95720.22
2022-09-02T02:11:08.785Z,95716.69
2022-09-02T02:12:13.093Z,95719.44
2022-09-02T02:13:15.348Z,95727.72
2022-09-02T02:14:19.612Z,95721.41
2022-09-02T02:16:29.112Z,95708.09
2022-09-02T02:17:31.168Z,95723.09
2022-09-02T02:18:34.159Z,95708.53
2022-09-02T02:19:36.150Z,95711.31
2022-09-02T02:20:39.968Z,95713.31
2022-09-02T02:21:45.010Z,95709.78
2022-09-02T02:22:48.871Z,95714.50
2022-09-02T02:23:51.876Z,95713.00
2022-09-02T02:24:54.829Z,95707.91
2022-09-02T02:25:58.643Z,95707.47
2022-09-02T02:27:02.093Z,95708.72
2022-09-02T02:28:05.578Z,95705.16
2022-09-02T02:29:09.519Z,95709.91
2022-09-02T02:30:15.729Z,95711.91
2022-09-02T02:31:19.318Z,95705.94
2022-09-02T02:32:22.618Z,95705.63
2022-09-02T02:33:26.191Z,95708.84
2022-09-02T02:34:39.403Z,95703.31
2022-09-02T02:35:44.100Z,95708.84
2022-09-02T02:36:46.773Z,95701.34
2022-09-02T02:37:50.594Z,95706.84
2022-09-02T02:38:52.723Z,95699.34
2022-09-02T02:39:57.407Z,95706.84
2022-09-02T02:41:06.054Z,95705.31
2022-09-02T02:42:09.937Z,95696.75
2022-09-02T02:43:11.895Z,95695.19
2022-09-02T02:44:15.056Z,95696.75
2022-09-02T02:45:17.020Z,95698.41
2022-09-02T02:46:20.506Z,95696.09
2022-09-02T02:47:22.675Z,95696.09
2022-09-02T02:48:27.066Z,95690.59
2022-09-02T02:49:29.369Z,95700.41
2022-09-02T02:50:32.979Z,95704.69
2022-09-02T02:51:35.863Z,95697.66
2022-09-02T02:52:40.029Z,95702.38
2022-09-02T02:53:42.595Z,95696.88
2022-09-02T02:54:46.825Z,95696.09
2022-09-02T02:55:49.868Z,95697.34
2022-09-02T02:56:54.779Z,95693.03
2022-09-02T02:57:56.714Z,95691.50
2022-09-02T02:59:03.167Z,95691.50
2022-09-02T03:00:08.405Z,95685.97
2022-09-02T03:01:11.565Z,95695.44
2022-09-02T03:02:14.039Z,95691.19
2022-09-02T03:03:19.593Z,95693.94
2022-09-02T03:04:24.515Z,95704.97
2022-09-02T03:05:29.071Z,95703.41
2022-09-02T03:06:32.591Z,95699.44
2022-09-02T03:07:35.918Z,95696.38
2022-09-02T03:08:39.846Z,95689.31
2022-09-02T03:09:44.118Z,95692.06
2022-09-02T03:10:46.581Z,95694.06
2022-09-02T03:11:50.488Z,95690.53
2022-09-02T03:12:54.187Z,95685.03
2022-09-02T03:13:57.243Z,95684.28
2022-09-02T03:14:59.676Z,95691.31
2022-09-02T03:16:04.568Z,95679.22
2022-09-02T03:17:07.621Z,95687.47
2022-09-02T03:18:10.772Z,95683.19
2022-09-02T03:19:14.151Z,95680.44
2022-09-02T03:20:19.146Z,95681.66
2022-09-02T03:21:27.047Z,95681.66
2022-09-02T03:22:30.431Z,95680.88
2022-09-02T03:23:32.523Z,95686.41
2022-09-02T03:24:35.694Z,95687.16
2022-09-02T03:25:37.639Z,95689.16
2022-09-02T03:26:51.078Z,95685.63
2022-09-02T03:27:54.753Z,95689.59
2022-09-02T03:28:57.759Z,95688.84
2022-09-02T03:30:01.382Z,95679.81
2022-09-02T03:31:04.762Z,95688.09
2022-09-02T03:32:07.898Z,95685.31
2022-09-02T03:33:11.089Z,95682.56
2022-09-02T03:34:13.148Z,95681.03
2022-09-02T03:35:19.565Z,95677.97
2022-09-02T03:36:25.238Z,95679.50
2022-09-02T03:37:27.272Z,95679.50
2022-09-02T03:38:30.993Z,95673.97
2022-09-02T03:39:33.052Z,95679.50
2022-09-02T03:40:36.632Z,95679.50
2022-09-02T03:41:41.207Z,95683.00
2022-09-02T03:42:44.954Z,95677.97
2022-09-02T03:43:50.744Z,95677.97
2022-09-02T03:44:54.293Z,95681.94
2022-09-02T03:45:56.334Z,95676.44
2022-09-02T03:46:59.845Z,95678.88
2022-09-02T03:48:02.497Z,95680.41
2022-09-02T03:49:08.991Z,95677.66
2022-09-02T03:50:11.816Z,95674.59
2022-09-02T03:51:15.118Z,95677.34
2022-09-02T03:52:17.383Z,95671.53
2022-09-02T03:53:20.585Z,95675.03
2022-09-02T03:54:28.988Z,95673.97
2022-09-02T03:55:32.914Z,95675.19
2022-09-02T03:56:36.342Z,95679.91
2022-09-02T03:57:39.829Z,95668.13
2022-09-02T03:58:42.665Z,95669.38
2022-09-02T03:59:46.961Z,95663.84
2022-09-02T04:00:51.725Z,95673.66
2022-09-02T04:01:56.728Z,95672.13
2022-09-02T04:02:59.376Z,95674.09
2022-09-02T04:04:03.250Z,95661.53
2022-09-02T04:05:07.052Z,95672.56
2022-09-02T04:06:20.781Z,95664.75
2022-09-02T04:07:23.487Z,95667.50
2022-09-02T04:08:29.008Z,95664.44
2022-09-02T04:09:34.405Z,95668.44
2022-09-02T04:10:38.995Z,95675.47
2022-09-02T04:11:42.840Z,95668.44
2022-09-02T04:12:47.273Z,95662.91
2022-09-02T04:13:51.129Z,95667.66
2022-09-02T04:14:58.350Z,95666.91
2022-09-02T04:16:05.814Z,95668.88
2022-09-02T04:18:27.205Z,95660.59
2022-09-02T04:20:45.053Z,95663.34
2022-09-02T04:22:07.560Z,95663.84
2022-09-02T04:23:11.198Z,95667.78
2022-09-02T04:24:15.967Z,95667.78
2022-09-02T04:25:26.717Z,95671.03
2022-09-02T04:26:31.388Z,95664.72
2022-09-02T04:27:35.107Z,95667.94
2022-09-02T04:28:38.081Z,95669.91
2022-09-02T04:29:40.931Z,95672.38
2022-09-02T04:30:44.245Z,95668.06
2022-09-02T04:31:48.642Z,95672.06
2022-09-02T04:32:50.699Z,95665.00
2022-09-02T04:33:54.130Z,95669.00
2022-09-02T04:34:56.957Z,95661.94
2022-09-02T04:36:00.679Z,95668.22
2022-09-02T04:37:06.893Z,95672.97
2022-09-02T04:38:10.301Z,95665.16
2022-09-02T04:39:12.743Z,95672.97
2022-09-02T04:40:16.102Z,95667.44
2022-09-02T04:41:22.859Z,95666.69
2022-09-02T04:42:26.773Z,95661.63
2022-09-02T04:43:29.664Z,95670.69
2022-09-02T04:44:33.516Z,95654.59
2022-09-02T04:45:35.595Z,95666.84
2022-09-02T04:46:40.892Z,95660.53
2022-09-02T04:47:47.424Z,95665.28
2022-09-02T04:48:51.601Z,95670.03
2022-09-02T04:49:54.244Z,95663.78
2022-09-02T04:50:57.740Z,95663.78
2022-09-02T04:52:00.908Z,95660.22
2022-09-02T04:53:05.770Z,95663.44
2022-09-02T04:54:08.674Z,95659.94
2022-09-02T04:55:13.492Z,95663.91
2022-09-02T04:56:20.601Z,95666.34
2022-09-02T04:57:24.370Z,95661.59
2022-09-02T04:58:27.702Z,95664.34
2022-09-02T04:59:31.297Z,95671.84
2022-09-02T05:00:42.081Z,95667.56
2022-09-02T05:01:50.208Z,95665.56
2022-09-02T05:02:56.314Z,95663.25
2022-09-02T05:04:07.349Z,95673.19
2022-09-02T05:05:11.694Z,95671.22
2022-09-02T05:06:17.879Z,95671.69
2022-09-02T05:07:21.991Z,95668.94
2022-09-02T05:08:24.003Z,95669.69
2022-09-02T05:09:27.486Z,95668.94
2022-09-02T05:10:33.848Z,95663.72
2022-09-02T05:11:38.738Z,95670.00
2022-09-02T05:12:42.040Z,95675.06
2022-09-02T05:13:48.843Z,95665.25
2022-09-02T05:14:52.436Z,95673.53
2022-09-02T05:15:57.698Z,95673.06
2022-09-02T05:17:06.835Z,95672.31
2022-09-02T05:18:12.085Z,95670.31
2022-09-02T05:19:16.094Z,95669.84
2022-09-02T05:20:23.185Z,95668.78
2022-09-02T05:21:26.989Z,95667.25
2022-09-02T05:22:30.157Z,95669.25
2022-09-02T05:23:35.841Z,95676.44
2022-09-02T05:24:38.834Z,95670.59
2022-09-02T05:25:47.013Z,95678.06
2022-09-02T05:26:51.126Z,95669.81
2022-09-02T05:27:53.155Z,95668.59
2022-09-02T05:28:56.260Z,95668.94
2022-09-02T05:29:59.495Z,95678.72
2022-09-02T05:31:06.090Z,95673.19
2022-09-02T05:32:09.734Z,95670.31
2022-09-02T05:33:15.194Z,95671.25
2022-09-02T05:34:19.474Z,95673.28
2022-09-02T05:35:24.400Z,95677.28
2022-09-02T05:36:27.814Z,95674.09
2022-09-02T05:37:31.544Z,95667.84
2022-09-02T05:38:35.383Z,95673.69
2022-09-02T05:39:39.279Z,95673.41
2022-09-02T05:40:42.415Z,95673.91
2022-09-02T05:41:45.986Z,95668.22
2022-09-02T05:42:48.737Z,95672.69
2022-09-02T05:43:53.897Z,95674.06
2022-09-02T05:44:56.002Z,95681.13
2022-09-02T05:46:00.156Z,95668.56
2022-09-02T05:47:02.191Z,95676.53
2022-09-02T05:48:27.438Z,95682.03
2022-09-02T05:49:31.283Z,95684.19
2022-09-02T05:50:39.935Z,95678.66
2022-09-02T05:51:44.419Z,95683.28
2022-09-02T05:52:51.845Z,95677.00
2022-09-02T05:53:57.089Z,95675.47
2022-09-02T05:55:02.630Z,95682.22
2022-09-02T05:56:06.554Z,95679.91
2022-09-02T05:57:12.822Z,95675.31
2022-09-02T05:58:19.490Z,95679.44
2022-09-02T05:59:23.537Z,95673.00
2022-09-02T06:00:25.479Z,95678.38
2022-09-02T06:01:36.148Z,95671.28
2022-09-02T06:02:38.226Z,95669.13
2022-09-02T06:03:42.909Z,95669.59
2022-09-02T06:04:47.172Z,95670.34
2022-09-02T06:05:56.279Z,95663.31
2022-09-02T06:06:59.062Z,95666.50
2022-09-02T06:08:02.036Z,95660.06
2022-09-02T06:09:06.569Z,95668.78
2022-09-02T06:10:09.741Z,95673.88
2022-09-02T06:11:13.129Z,95668.78
2022-09-02T06:12:20.101Z,95665.59
2022-09-02T06:13:22.834Z,95666.38
2022-09-02T06:14:28.807Z,95664.81
2022-09-02T06:15:31.928Z,95672.03
2022-09-02T06:16:38.951Z,95666.69
2022-09-02T06:17:48.069Z,95661.28
2022-09-02T06:18:52.731Z,95667.28
2022-09-02T06:19:55.946Z,95657.44
2022-09-02T06:21:04.127Z,95666.63
2022-09-02T06:22:11.400Z,95664.47
2022-09-02T06:23:16.003Z,95666.13
2022-09-02T06:24:19.543Z,95664.44
2022-09-02T06:25:22.484Z,95664.44
2022-09-02T06:26:25.673Z,95662.00
2022-09-02T06:27:29.366Z,95657.03
2022-09-02T06:28:32.590Z,95664.72
2022-09-02T06:29:35.386Z,95661.06
2022-09-02T06:30:40.035Z,95650.75
2022-09-02T06:31:44.122Z,95661.06
2022-09-02T06:32:50.432Z,95665.19
2022-09-02T06:33:56.651Z,95663.03
2022-09-02T06:35:00.527Z,95665.28
2022-09-02T06:36:08.440Z,95656.38
2022-09-02T06:37:11.372Z,95664.94
2022-09-02T06:38:15.473Z,95658.22
2022-09-02T06:39:21.963Z,95660.78
2022-09-02T06:40:24.572Z,95664.63
2022-09-02T06:41:30.607Z,95667.09
2022-09-02T06:42:35.698Z,95659.56
2022-09-02T06:43:45.457Z,95664.94
2022-09-02T06:44:58.893Z,95661.91
2022-09-02T06:46:00.856Z,95661.72
2022-09-02T06:47:03.890Z,95661.44
2022-09-02T06:48:07.733Z,95657.31
2022-09-02T06:49:17.323Z,95663.03
2022-09-02T06:50:22.583Z,95662.53
2022-09-02T06:51:27.896Z,95664.06
2022-09-02T06:52:31.911Z,95662.84
2022-09-02T06:53:34.646Z,95658.84
2022-09-02T06:54:37.592Z,95664.94
2022-09-02T06:55:46.218Z,95660.03
2022-09-02T06:56:50.115Z,95661.38
2022-09-02T06:57:55.155Z,95657.22
2022-09-02T06:58:58.304Z,95666.09
2022-09-02T07:00:18.008Z,95668.53
2022-09-02T07:01:22.200Z,95668.81
2022-09-02T07:02:26.011Z,95666.41
2022-09-02T07:03:46.248Z,95662.41
2022-09-02T07:05:08.203Z,95664.53
2022-09-02T07:06:11.832Z,95661.59
2022-09-02T07:07:19.807Z,95667.25
2022-09-02T07:08:28.578Z,95668.94
2022-09-02T07:09:32.030Z,95671.69
2022-09-02T07:10:42.381Z,95666.09
2022-09-02T07:11:47.788Z,95664.88
2022-09-02T07:12:51.113Z,95669.19
2022-09-02T07:13:54.554Z,95665.75
2022-09-02T07:14:58.756Z,95667.59
2022-09-02T07:16:12.514Z,95665.41
2022-09-02T07:17:23.469Z,95668.31
2022-09-02T07:18:29.663Z,95667.19
2022-09-02T07:19:32.871Z,95676.06
2022-09-02T07:20:38.172Z,95672.09
2022-09-02T07:21:42.281Z,95672.38
2022-09-02T07:22:46.110Z,95668.06
2022-09-02T07:23:50.884Z,95675.91
2022-09-02T07:24:55.391Z,95668.66
2022-09-02T07:25:57.555Z,95668.66
2022-09-02T07:27:01.695Z,95663.13
2022-09-02T07:28:05.594Z,95672.94
2022-09-02T07:29:11.395Z,95673.56
2022-09-02T07:30:14.382Z,95666.56
2022-09-02T07:31:20.370Z,95663.47
2022-09-02T07:32:22.547Z,95668.72
2022-09-02T07:33:25.915Z,95665.56
2022-09-02T07:34:29.264Z,95669.06
2022-09-02T07:35:33.567Z,95665.06
2022-09-02T07:36:38.429Z,95660.19
2022-09-02T07:37:42.261Z,95662.06
2022-09-02T07:38:45.355Z,95665.13
2022-09-02T07:39:48.235Z,95666.34
2022-09-02T07:40:56.723Z,95673.72
2022-09-02T07:42:00.847Z,95666.97
2022-09-02T07:43:05.399Z,95662.47
2022-09-02T07:44:11.034Z,95673.66
2022-09-02T07:45:13.816Z,95665.66
2022-09-02T07:46:19.132Z,95664.72
2022-09-02T07:47:24.749Z,95662.72
2022-09-02T07:48:28.213Z,95660.25
2022-09-02T07:50:15.768Z,95662.53
2022-09-02T07:50:55.007Z,95661.03
2022-09-02T07:51:59.051Z,95669.91
2022-09-02T07:53:06.362Z,95657.75
2022-09-02T07:54:12.915Z,95663.78
2022-09-02T07:55:16.539Z,95668.25
2022-09-02T07:56:20.003Z,95662.72
2022-09-02T07:57:23.661Z,95662.22
2022-09-02T07:58:26.561Z,95660.53
2022-09-02T07:59:29.533Z,95666.22
2022-09-02T08:00:36.111Z,95664.66
2022-09-02T08:02:53.358Z,95655.19
2022-09-02T08:04:05.708Z,95657.94
2022-09-02T08:05:10.736Z,95662.44
2022-09-02T08:06:14.875Z,95660.13
2022-09-02T08:07:24.052Z,95658.13
2022-09-02T08:08:27.532Z,95662.00
2022-09-02T08:09:30.903Z,95660.53
2022-09-02T08:10:34.035Z,95655.59
2022-09-02T08:11:38.964Z,95656.34
2022-09-02T08:12:43.073Z,95661.06
2022-09-02T08:13:45.885Z,95662.53
2022-09-02T08:14:48.834Z,95659.13
2022-09-02T08:15:51.659Z,95659.72
2022-09-02T08:16:55.681Z,95657.84
2022-09-02T08:17:59.076Z,95661.69
2022-09-02T08:19:02.046Z,95661.22
2022-09-02T08:20:07.300Z,95661.03
2022-09-02T08:21:14.351Z,95661.78
2022-09-02T08:22:16.283Z,95665.50
2022-09-02T08:23:36.019Z,95661.97
2022-09-02T08:24:40.280Z,95661.03
2022-09-02T08:25:43.149Z,95669.63
2022-09-02T08:26:46.125Z,95659.59
2022-09-02T08:27:49.373Z,95665.44
2022-09-02T08:28:51.315Z,95667.97
2022-09-02T08:29:54.287Z,95668.34
2022-09-02T08:30:58.482Z,95656.31
2022-09-02T08:32:02.412Z,95661.09
2022-09-02T08:33:05.231Z,95667.38
2022-09-02T08:34:08.169Z,95669.09
2022-09-02T08:35:10.948Z,95660.03
2022-09-02T08:36:15.206Z,95654.19
2022-09-02T08:37:19.162Z,95663.84
2022-09-02T08:38:23.571Z,95668.16
2022-09-02T08:39:26.730Z,95658.03
2022-09-02T08:40:34.633Z,95661.84
2022-09-02T08:41:47.320Z,95660.91
2022-09-02T08:42:52.728Z,95657.66
2022-09-02T08:43:58.909Z,95655.97
2022-09-02T08:45:12.242Z,95642.00
2022-09-02T08:46:18.076Z,95651.38
2022-09-02T08:47:25.167Z,95651.19
2022-09-02T08:48:37.687Z,95652.25
2022-09-02T08:49:44.123Z,95641.19
2022-09-02T08:50:48.563Z,95651.59
2022-09-02T08:51:56.053Z,95655.41
2022-09-02T08:53:09.029Z,95652.34
2022-09-02T08:54:20.801Z,95655.91
2022-09-02T08:55:29.475Z,95654.38
2022-09-02T08:56:32.221Z,95656.97
2022-09-02T08:57:36.212Z,95651.22
2022-09-02T08:58:50.909Z,95658.59
2022-09-02T08:59:53.958Z,95649.34
2022-09-02T09:01:07.482Z,95653.16
2022-09-02T09:02:21.679Z,95649.94
2022-09-02T09:03:29.150Z,95647.16
2022-09-02T09:04:52.923Z,95651.63
2022-09-02T09:06:03.929Z,95639.97
2022-09-02T09:07:20.223Z,95641.88
2022-09-02T09:08:31.630Z,95648.09
2022-09-02T09:09:48.890Z,95641.31
2022-09-02T09:11:00.185Z,95650.38
2022-09-02T09:12:08.945Z,95647.16
2022-09-02T09:13:27.760Z,95642.84
2022-09-02T09:14:37.193Z,95655.47
2022-09-02T09:15:51.904Z,95644.75
2022-09-02T09:16:59.290Z,95634.53
2022-09-02T09:18:05.288Z,95636.63
2022-09-02T09:19:14.247Z,95636.00
2022-09-02T09:20:20.530Z,95632.56
2022-09-02T09:22:37.311Z,95641.75
2022-09-02T09:23:40.569Z,95644.03
2022-09-02T09:24:46.633Z,95633.72
2022-09-02T09:25:52.320Z,95634.28
2022-09-02T09:26:56.058Z,95627.50
2022-09-02T09:27:58.546Z,95625.50
2022-09-02T09:29:33.108Z,95634.28
2022-09-02T09:30:35.097Z,95627.22
2022-09-02T09:31:38.751Z,95635.25
2022-09-02T09:32:44.924Z,95630.16
2022-09-02T09:33:58.201Z,95627.22
2022-09-02T09:35:07.552Z,95630.88
2022-09-02T09:36:13.722Z,95622.56
2022-09-02T09:37:31.649Z,95624.94
2022-09-02T09:38:38.597Z,95621.88
2022-09-02T09:39:40.565Z,95620.25
2022-09-02T09:40:45.242Z,95621.97
2022-09-02T09:41:48.448Z,95640.59
2022-09-02T09:42:56.919Z,95622.66
2022-09-02T09:43:59.918Z,95610.59
2022-09-02T09:45:20.091Z,95619.78
2022-09-02T09:46:28.572Z,95618.63
2022-09-02T09:47:30.449Z,95613.56
2022-09-02T09:48:33.808Z,95614.34
2022-09-02T09:49:36.641Z,95614.81
2022-09-02T09:50:39.551Z,95620.91
2022-09-02T09:51:55.555Z,95625.41
2022-09-02T09:53:15.879Z,95612.81
2022-09-02T09:54:19.316Z,95616.34
2022-09-02T09:55:22.787Z,95612.31
2022-09-02T09:56:37.677Z,95612.59
2022-09-02T09:57:40.737Z,95614.41
2022-09-02T09:58:49.630Z,95623.00
2022-09-02T09:59:57.063Z,95617.47
2022-09-02T10:01:00.709Z,95616.44
2022-09-02T10:02:04.017Z,95612.13
2022-09-02T10:03:08.998Z,95611.09
2022-09-02T10:04:39.323Z,95611.56
2022-09-02T10:05:39.175Z,95616.63
2022-09-02T10:06:42.963Z,95612.31
2022-09-02T10:07:55.481Z,95606.19
2022-09-02T10:09:01.456Z,95617.28
2022-09-02T10:10:16.900Z,95619.13
2022-09-02T10:11:24.487Z,95620.34
2022-09-02T10:12:33.588Z,95619.59
2022-09-02T10:13:38.828Z,95608.03
2022-09-02T10:14:44.894Z,95611.56
2022-09-02T10:16:15.604Z,95613.66
2022-09-02T10:17:40.207Z,95614.41
2022-09-02T10:18:50.877Z,95612.72
2022-09-02T10:19:59.899Z,95614.69
2022-09-02T10:21:15.779Z,95613.47
2022-09-02T10:23:00.039Z,95614.06
2022-09-02T10:24:08.587Z,95622.38
2022-09-02T10:25:25.242Z,95607.25
2022-09-02T10:26:38.518Z,95609.72
2022-09-02T10:27:56.033Z,95604.19
2022-09-02T10:29:24.751Z,95610.03
2022-09-02T10:30:29.522Z,95606.97
2022-09-02T10:31:38.698Z,95606.97
2022-09-02T10:32:57.605Z,95608.00
2022-09-02T10:34:11.849Z,95608.31
2022-09-02T10:35:21.391Z,95612.16
2022-09-02T10:36:31.852Z,95617.97
2022-09-02T10:37:43.275Z,95608.16
2022-09-02T10:38:48.869Z,95608.63
2022-09-02T10:40:08.440Z,95610.63
2022-09-02T10:41:25.175Z,95600.44
2022-09-02T10:42:36.086Z,95610.78
2022-09-02T10:44:00.825Z,95609.56
2022-09-02T10:45:14.133Z,95606.00
2022-09-02T10:46:22.752Z,95603.22
2022-09-02T10:47:33.584Z,95588.63
2022-09-02T10:48:48.800Z,95589.38
2022-09-02T10:50:06.062Z,95602.75
2022-09-02T10:51:18.147Z,95590.91
2022-09-02T10:52:47.537Z,95597.22
2022-09-02T10:54:10.931Z,95592.47
2022-09-02T10:55:21.326Z,95592.47
2022-09-02T10:56:27.525Z,95602.00
2022-09-02T10:57:32.683Z,95586.13
2022-09-02T10:58:43.581Z,95586.91
2022-09-02T10:59:51.271Z,95581.38
2022-09-02T11:00:56.942Z,95570.28
2022-09-02T11:02:10.266Z,95589.22
2022-09-02T11:03:18.115Z,95568.09
2022-09-02T11:04:30.849Z,95581.94
2022-09-02T11:05:42.212Z,95574.41
2022-09-02T11:07:03.961Z,95567.34
2022-09-02T11:08:11.954Z,95567.06
2022-09-02T11:10:37.264Z,95574.50
2022-09-02T11:11:45.229Z,95573.53
2022-09-02T11:12:52.573Z,95575.53
2022-09-02T11:14:03.861Z,95566.47
2022-09-02T11:15:16.731Z,95567.97
2022-09-02T11:16:24.469Z,95573.53
2022-09-02T11:17:35.618Z,95572.28
2022-09-02T11:18:45.127Z,95570.84
2022-09-02T11:19:52.784Z,95563.28
2022-09-02T11:21:02.026Z,95561.75
2022-09-02T11:22:14.827Z,95565.56
2022-09-02T11:23:25.530Z,95558.03
2022-09-02T11:24:34.729Z,95562.78
2022-09-02T11:25:43.341Z,95563.28
2022-09-02T11:26:55.092Z,95563.28
2022-09-02T11:28:09.600Z,95557.06
2022-09-02T11:29:22.016Z,95552.56
2022-09-02T11:30:36.958Z,95563.94
2022-09-02T11:31:44.379Z,95553.31
2022-09-02T11:32:54.526Z,95560.13
2022-09-02T11:35:16.248Z,95561.91
2022-09-02T11:36:18.558Z,95557.41
2022-09-02T11:37:31.857Z,95567.75
2022-09-02T11:38:39.969Z,95557.41
2022-09-02T11:40:06.634Z,95557.13
2022-09-02T11:41:36.939Z,95558.84
2022-09-02T11:43:03.851Z,95556.88
2022-09-02T11:44:22.196Z,95559.34
2022-09-02T11:45:49.413Z,95559.84
2022-09-02T11:47:25.035Z,95561.09
2022-09-02T11:49:03.725Z,95550.47
2022-09-02T11:50:35.822Z,95554.56
2022-09-02T11:52:01.907Z,95550.34
2022-09-02T11:53:19.054Z,95550.13
2022-09-02T11:54:27.537Z,95557.28
2022-09-02T11:55:35.590Z,95558.31
2022-09-02T11:56:42.190Z,95550.97
2022-09-02T11:57:53.902Z,95553.19
2022-09-02T11:58:56.070Z,95546.59
2022-09-02T12:00:30.465Z,95551.88
2022-09-02T12:01:35.940Z,95552.66
2022-09-02T12:02:50.281Z,95552.66
2022-09-02T12:06:02.742Z,95546.69
2022-09-02T12:07:26.790Z,95548.44
2022-09-02T12:09:05.099Z,95536.84
2022-09-02T12:10:08.847Z,95540.59
2022-09-02T12:11:41.638Z,95543.69
2022-09-02T12:13:08.466Z,95544.28
2022-09-02T12:14:27.358Z,95543.78
2022-09-02T12:15:36.685Z,95551.56
2022-09-02T12:16:44.343Z,95546.00
2022-09-02T12:18:10.988Z,95556.06
2022-09-02T12:19:28.591Z,95555.56
2022-09-02T12:21:07.780Z,95546.69
2022-09-02T12:22:38.467Z,95554.31
2022-09-02T12:24:21.593Z,95551.84
2022-09-02T12:25:38.597Z,95550.56
2022-09-02T12:27:10.706Z,95548.78
2022-09-02T12:28:27.759Z,95549.75
2022-09-02T12:29:32.816Z,95541.63
2022-09-02T12:31:12.701Z,95545.44
2022-09-02T12:33:01.487Z,95539.63
2022-09-02T12:34:43.182Z,95551.56
2022-09-02T12:35:53.227Z,95545.03
2022-09-02T12:36:57.430Z,95543.78
2022-09-02T12:38:23.812Z,95543.78
2022-09-02T12:39:58.390Z,95534.44
2022-09-02T12:41:14.243Z,95538.72
2022-09-02T12:42:24.064Z,95542.53
2022-09-02T12:43:31.099Z,95537.00
2022-09-02T12:44:44.788Z,95537.28
2022-09-02T12:45:47.847Z,95534.22
2022-09-02T12:47:09.595Z,95537.28
2022-09-02T12:48:16.586Z,95540.88
2022-09-02T12:49:29.910Z,95534.38
2022-09-02T12:50:51.908Z,95536.84
2022-09-02T12:51:57.220Z,95531.31
2022-09-02T12:53:31.369Z,95532.63
2022-09-02T12:54:42.135Z,95542.97
2022-09-02T12:55:58.160Z,95533.38
2022-09-02T12:57:00.106Z,95527.84
2022-09-02T12:58:10.940Z,95528.63
2022-09-02T12:59:29.428Z,95524.78
2022-09-02T13:00:37.414Z,95527.31
2022-09-02T13:01:47.922Z,95530.56
2022-09-02T13:03:02.833Z,95526.22
2022-09-02T13:04:26.307Z,95529.50
2022-09-02T13:05:39.941Z,95526.75
2022-09-02T13:07:02.014Z,95525.47
2022-09-02T13:08:23.703Z,95516.41
2022-09-02T13:10:00.031Z,95528.53
2022-09-02T13:11:36.794Z,95524.25
2022-09-02T13:13:12.988Z,95529.56
2022-09-02T13:14:40.841Z,95525.06
2022-09-02T13:16:08.369Z,95525.06
2022-09-02T13:17:38.184Z,95515.50
2022-09-02T13:19:07.617Z,95518.84
2022-09-02T13:20:53.706Z,95517.31
2022-09-02T13:22:43.355Z,95518.75
2022-09-02T13:24:21.814Z,95518.00
2022-09-02T13:26:04.109Z,95512.44
2022-09-02T13:27:50.566Z,95513.97